createdAt,value
2018-05-03T00:01:40.624Z,26.70
2018-05-03T00:04:08.217Z,25.85
2018-05-03T00:06:35.812Z,19.02
2018-05-03T00:09:03.438Z,28.95
2018-05-03T00:11:30.998Z,22.13
2018-05-03T00:13:58.589Z,26.37
2018-05-03T00:16:26.155Z,20.52
2018-05-03T00:18:53.742Z,27.92
2018-05-03T00:21:21.307Z,21.48
2018-05-03T00:23:48.890Z,30.95
2018-05-03T00:26:16.470Z,24.63
2018-05-03T00:28:44.034Z,22.42
2018-05-03T00:31:11.634Z,28.90
2018-05-03T00:33:39.214Z,27.70
2018-05-03T00:36:06.822Z,26.85
2018-05-03T00:38:34.405Z,22.85
2018-05-03T00:41:02.606Z,21.25
2018-05-03T00:43:30.169Z,30.77
2018-05-03T00:45:57.746Z,26.37
2018-05-03T00:48:25.302Z,17.60
2018-05-03T00:50:52.886Z,22.00
2018-05-03T00:53:20.442Z,23.33
2018-05-03T00:55:48.862Z,25.73
2018-05-03T00:58:16.527Z,26.90
2018-05-03T01:00:44.124Z,25.75
2018-05-03T01:03:13.219Z,23.45
2018-05-03T01:05:40.815Z,27.25
2018-05-03T01:08:08.404Z,28.10
2018-05-03T01:10:36.763Z,26.12
2018-05-03T01:13:04.397Z,28.05
2018-05-03T01:15:31.963Z,26.25
2018-05-03T01:18:00.314Z,30.37
2018-05-03T01:20:27.874Z,33.35
2018-05-03T01:22:55.459Z,31.35
2018-05-03T01:25:23.022Z,38.10
2018-05-03T01:27:50.601Z,35.47
2018-05-03T01:30:18.162Z,38.33
2018-05-03T01:32:45.751Z,33.42
2018-05-03T01:35:25.337Z,36.08
2018-05-03T01:37:53.685Z,36.42
2018-05-03T01:40:21.241Z,33.15
2018-05-03T01:42:48.822Z,41.70
2018-05-03T01:45:16.383Z,39.78
2018-05-03T01:47:43.982Z,38.13
2018-05-03T01:50:11.555Z,45.35
2018-05-03T01:52:39.822Z,43.05
2018-05-03T01:55:07.424Z,38.80
2018-05-03T01:57:35.050Z,38.45
2018-05-03T02:00:02.622Z,26.48
2018-05-03T02:02:30.177Z,26.85
2018-05-03T02:04:57.760Z,37.70
2018-05-03T02:07:25.327Z,33.55
2018-05-03T02:09:52.913Z,37.50
2018-05-03T02:12:20.483Z,41.40
2018-05-03T02:14:48.061Z,36.17
2018-05-03T02:17:15.634Z,39.45
2018-05-03T02:19:44.048Z,23.75
2018-05-03T02:22:11.629Z,21.48
2018-05-03T02:24:39.234Z,20.48
2018-05-03T02:27:07.453Z,27.73
2018-05-03T02:29:35.040Z,22.48
2018-05-03T02:32:02.672Z,19.45
2018-05-03T02:34:31.022Z,19.15
2018-05-03T02:36:59.353Z,19.50
2018-05-03T02:39:27.707Z,23.80
2018-05-03T02:41:55.278Z,33.53
2018-05-03T02:44:22.894Z,27.85
2018-05-03T02:46:51.222Z,27.35
2018-05-03T02:49:18.777Z,31.83
2018-05-03T02:51:46.358Z,35.13
2018-05-03T02:54:13.940Z,32.97
2018-05-03T02:56:41.530Z,45.28
2018-05-03T02:59:22.032Z,49.83
2018-05-03T03:01:57.691Z,42.33
2018-05-03T03:04:44.312Z,51.45
2018-05-03T03:14:21.305Z,28.67
2018-05-03T03:17:06.397Z,36.45
2018-05-03T03:20:02.230Z,41.70
2018-05-03T03:22:47.525Z,42.70
2018-05-03T03:28:54.057Z,45.78
2018-05-03T03:31:39.454Z,47.97
2018-05-03T03:34:16.880Z,42.28
2018-05-03T03:40:03.221Z,47.90
2018-05-03T03:45:45.346Z,48.33
2018-05-03T03:48:12.914Z,47.28
2018-05-03T03:50:40.515Z,49.65
2018-05-03T03:53:08.088Z,50.15
2018-05-03T03:55:36.426Z,50.17
2018-05-03T03:58:04.777Z,52.15
2018-05-03T04:00:32.357Z,51.30
2018-05-03T04:02:59.957Z,48.45
2018-05-03T04:05:27.555Z,45.20
2018-05-03T04:07:55.138Z,46.83
2018-05-03T04:10:22.745Z,52.25
2018-05-03T04:12:50.308Z,55.12
2018-05-03T04:15:17.897Z,50.50
2018-05-03T04:17:57.273Z,47.03
2018-05-03T04:20:40.348Z,56.30
2018-05-03T04:26:11.636Z,47.50
2018-05-03T04:28:39.185Z,46.78
2018-05-03T04:31:07.525Z,47.78
2018-05-03T04:33:35.080Z,43.45
2018-05-03T04:36:02.654Z,44.35
2018-05-03T04:38:30.251Z,52.78
2018-05-03T04:40:57.829Z,42.75
2018-05-03T04:43:25.460Z,43.00
2018-05-03T04:45:53.068Z,50.95
2018-05-03T04:48:21.430Z,47.90
2018-05-03T04:50:49.096Z,49.22
2018-05-03T04:53:17.933Z,47.15
2018-05-03T04:55:45.507Z,42.92
2018-05-03T04:58:13.082Z,45.97
2018-05-03T05:00:40.646Z,52.92
2018-05-03T05:03:08.222Z,52.05
2018-05-03T05:05:35.861Z,44.03
2018-05-03T05:08:03.446Z,47.15
2018-05-03T05:10:31.039Z,47.25
2018-05-03T05:12:58.630Z,41.53
2018-05-03T05:15:26.202Z,38.40
2018-05-03T05:17:53.904Z,43.70
2018-05-03T05:20:21.471Z,41.55
2018-05-03T05:22:49.805Z,39.85
2018-05-03T05:25:17.393Z,42.00
2018-05-03T05:27:44.954Z,40.15
2018-05-03T05:30:12.534Z,40.60
2018-05-03T05:32:40.248Z,40.22
2018-05-03T05:35:07.866Z,40.50
2018-05-03T05:37:36.219Z,35.80
2018-05-03T05:40:03.881Z,35.90
2018-05-03T05:42:32.326Z,42.40
2018-05-03T05:44:59.905Z,32.60
2018-05-03T05:47:27.461Z,42.20
2018-05-03T05:49:55.038Z,33.50
2018-05-03T05:52:22.599Z,36.78
2018-05-03T05:54:50.181Z,33.53
2018-05-03T05:57:17.742Z,36.42
2018-05-03T05:59:45.333Z,32.45
2018-05-03T06:02:12.895Z,31.05
2018-05-03T06:04:40.473Z,30.12
2018-05-03T06:07:08.066Z,39.00
2018-05-03T06:09:35.688Z,31.20
2018-05-03T06:12:03.753Z,29.27
2018-05-03T06:14:32.182Z,29.58
2018-05-03T06:16:59.785Z,32.22
2018-05-03T06:19:27.342Z,29.17
2018-05-03T06:21:54.927Z,24.50
2018-05-03T06:24:22.542Z,30.05
2018-05-03T06:26:51.101Z,26.92
2018-05-03T06:29:18.718Z,31.10
2018-05-03T06:31:47.076Z,29.45
2018-05-03T06:34:14.646Z,29.48
2018-05-03T06:36:42.238Z,23.77
2018-05-03T06:39:10.577Z,28.92
2018-05-03T06:41:38.233Z,25.20
2018-05-03T06:44:05.809Z,30.92
2018-05-03T06:46:33.397Z,25.52
2018-05-03T06:49:01.812Z,21.75
2018-05-03T06:51:29.438Z,26.60
2018-05-03T06:53:56.985Z,24.70
2018-05-03T06:56:26.808Z,26.75
2018-05-03T06:58:55.159Z,26.12
2018-05-03T07:01:22.721Z,26.60
2018-05-03T07:03:50.320Z,26.83
2018-05-03T07:06:17.900Z,31.80
2018-05-03T07:08:45.581Z,24.05
2018-05-03T07:11:13.267Z,22.98
2018-05-03T07:13:41.624Z,23.17
2018-05-03T07:16:09.195Z,24.23
2018-05-03T07:18:37.549Z,25.73
2018-05-03T07:21:05.110Z,21.55
2018-05-03T07:23:33.471Z,29.23
2018-05-03T07:26:01.814Z,23.20
2018-05-03T07:28:29.418Z,25.23
2018-05-03T07:30:56.982Z,27.42
2018-05-03T07:33:24.541Z,26.55
2018-05-03T07:35:52.121Z,28.73
2018-05-03T07:38:19.694Z,21.48
2018-05-03T07:40:47.384Z,26.48
2018-05-03T07:43:15.682Z,24.20
2018-05-03T07:45:43.271Z,23.90
2018-05-03T07:48:11.603Z,24.92
2018-05-03T07:50:39.209Z,21.48
2018-05-03T07:53:07.430Z,22.90
2018-05-03T07:55:35.786Z,23.85
2018-05-03T07:58:03.350Z,27.17
2018-05-03T08:00:30.938Z,19.67
2018-05-03T08:02:58.504Z,19.85
2018-05-03T08:05:26.098Z,19.77
2018-05-03T08:07:54.429Z,21.80
2018-05-03T08:10:22.023Z,16.58
2018-05-03T08:12:49.601Z,13.68
2018-05-03T08:15:17.976Z,19.77
2018-05-03T08:17:45.561Z,16.17
2018-05-03T08:20:13.182Z,16.95
2018-05-03T08:22:40.751Z,13.62
2018-05-03T08:25:09.101Z,14.77
2018-05-03T08:27:36.746Z,16.23
2018-05-03T08:30:04.338Z,13.18
2018-05-03T08:32:31.905Z,15.63
2018-05-03T08:34:59.510Z,21.02
2018-05-03T08:37:27.073Z,13.38
2018-05-03T08:39:54.641Z,20.02
2018-05-03T08:42:23.448Z,19.70
2018-05-03T08:44:51.178Z,17.60
2018-05-03T08:47:18.766Z,16.75
2018-05-03T08:49:46.354Z,16.98
2018-05-03T08:52:13.946Z,20.70
2018-05-03T08:54:41.524Z,15.10
2018-05-03T08:57:09.117Z,14.13
2018-05-03T08:59:37.455Z,20.25
2018-05-03T09:02:05.046Z,13.82
2018-05-03T09:04:32.637Z,15.95
2018-05-03T09:07:01.020Z,16.17
2018-05-03T09:09:28.594Z,13.32
2018-05-03T09:11:56.170Z,15.70
2018-05-03T09:14:23.785Z,15.57
2018-05-03T09:16:51.363Z,21.95
2018-05-03T09:19:18.959Z,15.63
2018-05-03T09:21:47.299Z,14.80
2018-05-03T09:24:14.885Z,16.55
2018-05-03T09:26:42.453Z,22.37
2018-05-03T09:29:10.039Z,15.63
2018-05-03T09:31:37.610Z,19.73
2018-05-03T09:34:05.192Z,15.70
2018-05-03T09:36:32.761Z,17.92
2018-05-03T09:39:00.370Z,22.85
2018-05-03T09:41:27.947Z,17.87
2018-05-03T09:43:55.570Z,17.90
2018-05-03T09:46:23.158Z,17.12
2018-05-03T09:48:50.866Z,17.40
2018-05-03T09:51:18.462Z,13.73
2018-05-03T09:53:46.828Z,20.67
2018-05-03T09:56:14.482Z,17.85
2018-05-03T09:58:42.284Z,19.08
2018-05-03T10:01:09.875Z,13.60
2018-05-03T10:03:38.208Z,18.90
2018-05-03T10:06:05.796Z,17.52
2018-05-03T10:08:33.381Z,14.73
2018-05-03T10:11:00.966Z,16.87
2018-05-03T10:13:28.536Z,16.67
2018-05-03T10:15:56.121Z,12.20
2018-05-03T10:18:24.469Z,14.70
2018-05-03T10:20:52.070Z,16.43
2018-05-03T10:23:19.649Z,13.60
2018-05-03T10:25:48.019Z,15.50
2018-05-03T10:28:15.736Z,17.63
2018-05-03T10:30:44.109Z,25.77
2018-05-03T10:33:12.457Z,14.50
2018-05-03T10:35:40.226Z,15.27
2018-05-03T10:38:07.750Z,13.67
2018-05-03T10:40:35.318Z,13.77
2018-05-03T10:43:02.970Z,12.77
2018-05-03T10:45:30.560Z,13.13
2018-05-03T10:47:58.942Z,15.70
2018-05-03T10:50:26.610Z,16.03
2018-05-03T10:52:54.201Z,12.67
2018-05-03T10:55:21.783Z,17.27
2018-05-03T10:57:50.134Z,15.40
2018-05-03T11:00:17.725Z,13.60
2018-05-03T11:02:45.321Z,14.97
2018-05-03T11:05:13.701Z,20.80
2018-05-03T11:07:41.319Z,15.63
2018-05-03T11:10:08.886Z,19.17
2018-05-03T11:12:36.466Z,14.00
2018-05-03T11:15:04.021Z,19.47
2018-05-03T11:17:31.629Z,12.70
2018-05-03T11:19:59.201Z,15.97
2018-05-03T11:22:26.768Z,13.60
2018-05-03T11:24:54.350Z,12.70
2018-05-03T11:27:22.686Z,14.70
2018-05-03T11:29:51.041Z,19.30
2018-05-03T11:32:18.621Z,13.47
2018-05-03T11:34:47.177Z,14.10
2018-05-03T11:37:14.806Z,13.93
2018-05-03T11:39:43.166Z,13.60
2018-05-03T11:44:45.042Z,17.53
2018-05-03T11:47:13.282Z,17.63
2018-05-03T11:49:40.879Z,16.50
2018-05-03T11:52:08.449Z,20.93
2018-05-03T11:54:36.793Z,19.63
2018-05-03T11:57:05.125Z,21.87
2018-05-03T11:59:33.473Z,14.80
2018-05-03T12:02:02.256Z,20.07
2018-05-03T12:04:29.842Z,18.37
2018-05-03T12:06:57.468Z,18.00
2018-05-03T12:09:25.814Z,15.30
2018-05-03T12:11:54.191Z,21.40
2018-05-03T12:14:21.766Z,18.60
2018-05-03T12:16:50.122Z,20.40
2018-05-03T12:19:17.695Z,22.50
2018-05-03T12:21:45.277Z,17.77
2018-05-03T12:24:12.847Z,18.93
2018-05-03T12:26:40.425Z,16.57
2018-05-03T12:29:07.985Z,21.03
2018-05-03T12:31:35.570Z,15.80
2018-05-03T12:34:03.132Z,16.87
2018-05-03T12:36:30.729Z,16.77
2018-05-03T12:38:58.331Z,15.73
2018-05-03T12:41:25.905Z,19.63
2018-05-03T12:43:53.522Z,15.20
2018-05-03T12:46:21.113Z,20.43
2018-05-03T12:48:49.482Z,19.10
2018-05-03T12:51:17.139Z,22.30
2018-05-03T12:53:44.782Z,20.47
2018-05-03T12:56:12.345Z,19.80
2018-05-03T12:58:39.921Z,18.13
2018-05-03T13:01:07.485Z,22.20
2018-05-03T13:03:35.067Z,23.03
2018-05-03T13:06:02.630Z,19.57
2018-05-03T13:08:30.217Z,19.90
2018-05-03T13:10:57.789Z,19.63
2018-05-03T13:13:25.373Z,26.60
2018-05-03T13:15:52.944Z,18.20
2018-05-03T13:18:20.528Z,14.47
2018-05-03T13:20:48.894Z,21.20
2018-05-03T13:23:16.535Z,22.33
2018-05-03T13:25:44.243Z,27.00
2018-05-03T13:28:11.765Z,26.83
2018-05-03T13:30:39.345Z,22.60
2018-05-03T13:33:06.909Z,21.60
2018-05-03T13:35:34.493Z,21.70
2018-05-03T13:38:02.062Z,22.50
2018-05-03T13:40:29.649Z,20.80
2018-05-03T13:42:57.222Z,20.83
2018-05-03T13:45:24.797Z,23.80
2018-05-03T13:47:52.369Z,18.30
2018-05-03T13:50:20.746Z,19.27
2018-05-03T13:52:49.125Z,19.40
2018-05-03T13:55:16.787Z,21.50
2018-05-03T13:57:44.387Z,22.50
2018-05-03T14:00:11.974Z,28.30
2018-05-03T14:02:39.557Z,25.33
2018-05-03T14:05:07.120Z,16.67
2018-05-03T14:07:34.705Z,18.07
2018-05-03T14:10:02.270Z,24.83
2018-05-03T14:12:29.861Z,19.50
2018-05-03T14:14:57.431Z,18.70
2018-05-03T14:17:25.023Z,18.10
2018-05-03T14:19:53.396Z,19.17
2018-05-03T14:22:23.950Z,13.80
2018-05-03T14:24:52.322Z,22.03
2018-05-03T14:27:19.921Z,18.00
2018-05-03T14:29:48.454Z,21.30
2018-05-03T14:32:16.110Z,21.27
2018-05-03T14:34:43.710Z,18.17
2018-05-03T14:37:11.338Z,21.00
2018-05-03T14:39:39.666Z,18.93
2018-05-03T14:42:07.232Z,18.20
2018-05-03T14:44:34.818Z,18.23
2018-05-03T14:47:03.682Z,20.67
2018-05-03T14:49:32.038Z,21.90
2018-05-03T14:52:00.408Z,20.50
2018-05-03T14:54:28.630Z,19.23
2018-05-03T14:56:56.273Z,21.90
2018-05-03T14:59:23.885Z,19.20
2018-05-03T15:01:54.461Z,18.67
2018-05-03T15:04:22.319Z,24.13
2018-05-03T15:06:50.126Z,24.23
2018-05-03T15:09:17.932Z,20.00
2018-05-03T15:11:45.494Z,19.67
2018-05-03T15:14:13.081Z,25.97
2018-05-03T15:16:40.648Z,21.63
2018-05-03T15:19:08.233Z,19.20
2018-05-03T15:21:35.803Z,22.30
2018-05-03T15:24:03.413Z,19.40
2018-05-03T15:26:31.109Z,19.67
2018-05-03T15:28:58.885Z,16.50
2018-05-03T15:31:26.568Z,20.93
2018-05-03T15:33:54.227Z,24.10
2018-05-03T15:36:21.758Z,26.33
2018-05-03T15:38:49.318Z,19.10
2018-05-03T15:41:16.904Z,23.73
2018-05-03T15:43:44.465Z,19.37
2018-05-03T15:46:12.049Z,21.17
2018-05-03T15:48:40.401Z,16.07
2018-05-03T15:51:07.994Z,18.20
2018-05-03T15:53:35.573Z,17.80
2018-05-03T15:56:03.164Z,17.23
2018-05-03T15:58:31.513Z,16.70
2018-05-03T16:00:59.128Z,19.23
2018-05-03T16:03:27.483Z,23.53
2018-05-03T16:05:55.094Z,20.43
2018-05-03T16:08:23.427Z,15.50
2018-05-03T16:10:51.046Z,15.20
2018-05-03T16:13:18.609Z,15.10
2018-05-03T16:15:46.177Z,16.60
2018-05-03T16:18:13.759Z,14.57
2018-05-03T16:20:41.327Z,14.20
2018-05-03T16:23:08.913Z,19.33
2018-05-03T16:25:37.154Z,15.80
2018-05-03T16:28:04.753Z,22.50
2018-05-03T16:30:32.344Z,14.10
2018-05-03T16:32:59.945Z,22.57
2018-05-03T16:35:27.514Z,19.10
2018-05-03T16:37:55.129Z,19.37
2018-05-03T16:40:22.702Z,16.13
2018-05-03T16:42:50.281Z,14.87
2018-05-03T16:45:17.842Z,17.93
2018-05-03T16:47:45.421Z,16.10
2018-05-03T16:50:12.989Z,19.67
2018-05-03T16:52:40.580Z,18.10
2018-05-03T16:55:08.149Z,17.73
2018-05-03T16:57:35.729Z,22.53
2018-05-03T17:00:03.314Z,20.63
2018-05-03T17:02:31.702Z,20.70
2018-05-03T17:04:59.316Z,20.93
2018-05-03T17:07:26.933Z,21.20
2018-05-03T17:09:54.605Z,19.00
2018-05-03T17:12:22.174Z,17.10
2018-05-03T17:14:49.749Z,26.30
2018-05-03T17:17:17.309Z,23.30
2018-05-03T17:19:44.889Z,17.73
2018-05-03T17:22:12.453Z,19.30
2018-05-03T17:24:40.030Z,20.27
2018-05-03T17:27:07.598Z,19.57
2018-05-03T17:29:35.185Z,15.60
2018-05-03T17:32:02.803Z,19.63
2018-05-03T17:34:30.397Z,16.33
2018-05-03T17:36:58.014Z,17.87
2018-05-03T17:39:25.728Z,21.30
2018-05-03T17:41:53.315Z,14.70
2018-05-03T17:44:20.916Z,21.37
2018-05-03T17:46:49.483Z,17.43
2018-05-03T17:49:17.081Z,20.93
2018-05-03T17:51:44.650Z,17.97
2018-05-03T17:54:12.214Z,17.63
2018-05-03T17:56:39.797Z,17.00
2018-05-03T17:59:07.353Z,17.70
2018-05-03T18:01:34.945Z,19.47
2018-05-03T18:04:02.528Z,18.40
2018-05-03T18:06:30.162Z,21.80
2018-05-03T18:08:57.783Z,20.33
2018-05-03T18:11:26.168Z,17.03
2018-05-03T18:13:53.746Z,16.80
2018-05-03T18:16:21.380Z,16.13
2018-05-03T18:18:48.925Z,18.10
2018-05-03T18:21:16.515Z,22.60
2018-05-03T18:23:44.073Z,39.23
2018-05-03T18:26:11.707Z,32.50
2018-05-03T18:28:39.237Z,26.40
2018-05-03T18:31:06.849Z,48.77
2018-05-03T18:33:34.417Z,27.43
2018-05-03T18:36:02.002Z,22.40
2018-05-03T18:38:29.605Z,16.50
2018-05-03T18:40:57.963Z,16.27
2018-05-03T18:43:25.578Z,17.43
2018-05-03T18:45:53.158Z,16.47
2018-05-03T18:48:20.737Z,14.77
2018-05-03T18:50:48.302Z,15.20
2018-05-03T18:53:15.886Z,16.60
2018-05-03T18:55:43.441Z,34.93
2018-05-03T18:58:11.029Z,17.40
2018-05-03T19:00:38.605Z,15.95
2018-05-03T19:03:06.189Z,13.40
2018-05-03T19:05:35.815Z,16.75
2018-05-03T19:08:03.438Z,18.30
2018-05-03T19:10:31.022Z,19.15
2018-05-03T19:12:58.660Z,15.95
2018-05-03T19:15:27.073Z,18.23
2018-05-03T19:17:54.678Z,15.82
2018-05-03T19:20:22.273Z,18.23
2018-05-03T19:22:49.865Z,16.92
2018-05-03T19:25:17.456Z,15.75
2018-05-03T19:27:45.792Z,15.50
2018-05-03T19:30:13.377Z,14.97
2018-05-03T19:32:40.950Z,16.03
2018-05-03T19:35:08.559Z,13.25
2018-05-03T19:37:36.974Z,18.63
2018-05-03T19:40:04.601Z,16.57
2018-05-03T19:42:32.200Z,12.17
2018-05-03T19:45:00.557Z,15.00
2018-05-03T19:47:28.138Z,17.37
2018-05-03T19:49:55.708Z,22.13
2018-05-03T19:52:23.276Z,11.50
2018-05-03T19:54:50.930Z,10.13
2018-05-03T19:57:20.228Z,16.30
2018-05-03T19:59:47.799Z,15.30
2018-05-03T20:02:15.378Z,11.90
2018-05-03T20:04:42.945Z,12.57
2018-05-03T20:07:10.541Z,11.12
2018-05-03T20:09:38.127Z,12.67
2018-05-03T20:12:05.722Z,10.93
2018-05-03T20:14:33.291Z,14.30
2018-05-03T20:17:01.658Z,13.70
2018-05-03T20:19:29.233Z,11.50
2018-05-03T20:21:56.822Z,16.80
2018-05-03T20:24:25.010Z,14.75
2018-05-03T20:26:52.594Z,18.17
2018-05-03T20:29:20.191Z,18.07
2018-05-03T20:31:48.981Z,13.73
2018-05-03T20:34:17.321Z,10.80
2018-05-03T20:36:44.917Z,10.20
2018-05-03T20:39:12.506Z,12.20
2018-05-03T20:41:40.871Z,14.87
2018-05-03T20:44:08.442Z,14.40
2018-05-03T20:46:36.006Z,16.50
2018-05-03T20:49:03.585Z,17.23
2018-05-03T20:51:31.149Z,10.90
2018-05-03T20:53:59.503Z,10.10
2018-05-03T20:56:27.120Z,14.50
2018-05-03T20:58:54.682Z,8.07
2018-05-03T21:01:22.266Z,10.10
2018-05-03T21:03:50.846Z,9.87
2018-05-03T21:06:18.418Z,8.67
2018-05-03T21:08:46.007Z,11.50
2018-05-03T21:11:13.598Z,11.45
2018-05-03T21:13:41.983Z,9.43
2018-05-03T21:16:10.321Z,9.40
2018-05-03T21:18:37.905Z,14.00
2018-05-03T21:21:05.478Z,7.90
2018-05-03T21:23:33.062Z,8.25
2018-05-03T21:26:00.655Z,11.12
2018-05-03T21:28:28.265Z,9.93
2018-05-03T21:30:55.826Z,10.80
2018-05-03T21:33:25.134Z,12.50
2018-05-03T21:35:53.477Z,6.85
2018-05-03T21:38:21.082Z,10.70
2018-05-03T21:40:49.450Z,7.47
2018-05-03T21:43:17.041Z,8.10
2018-05-03T21:45:44.646Z,8.23
2018-05-03T21:48:12.240Z,5.82
2018-05-03T21:50:39.825Z,6.30
2018-05-03T21:53:07.390Z,9.40
2018-05-03T21:55:34.969Z,5.22
2018-05-03T21:58:02.530Z,4.15
2018-05-03T22:00:30.109Z,4.43
2018-05-03T22:02:57.675Z,4.55
2018-05-03T22:05:25.262Z,6.05
2018-05-03T22:07:52.822Z,5.20
2018-05-03T22:10:20.440Z,11.10
2018-05-03T22:12:48.018Z,6.78
2018-05-03T22:15:15.638Z,5.55
2018-05-03T22:17:43.262Z,4.10
2018-05-03T22:20:11.630Z,5.03
2018-05-03T22:22:39.225Z,6.53
2018-05-03T22:25:06.781Z,6.32
2018-05-03T22:27:34.367Z,11.88
2018-05-03T22:30:01.934Z,6.40
2018-05-03T22:32:29.517Z,8.23
2018-05-03T22:34:57.081Z,5.37
2018-05-03T22:37:24.665Z,5.50
2018-05-03T22:39:52.242Z,6.45
2018-05-03T22:42:20.602Z,6.45
2018-05-03T22:44:48.214Z,4.70
2018-05-03T22:47:15.850Z,4.57
2018-05-03T22:49:43.465Z,4.47
2018-05-03T22:52:11.891Z,8.98
2018-05-03T22:54:39.466Z,9.35
2018-05-03T22:57:07.037Z,5.18
2018-05-03T22:59:34.598Z,4.40
2018-05-03T23:02:02.190Z,6.15
2018-05-03T23:04:29.754Z,5.78
2018-05-03T23:06:57.319Z,7.35
2018-05-03T23:09:24.897Z,7.95
2018-05-03T23:11:52.459Z,3.30
2018-05-03T23:14:20.081Z,6.22
2018-05-03T23:16:47.653Z,9.00
2018-05-03T23:19:15.312Z,6.97
2018-05-03T23:21:42.926Z,6.32
2018-05-03T23:24:11.385Z,13.62
2018-05-03T23:26:38.946Z,5.40
2018-05-03T23:29:06.522Z,5.37
2018-05-03T23:31:34.849Z,8.18
2018-05-03T23:34:03.193Z,3.72
2018-05-03T23:36:30.749Z,9.68
2018-05-03T23:38:58.326Z,4.65
2018-05-03T23:41:25.886Z,5.18
2018-05-03T23:43:53.461Z,5.90
2018-05-03T23:46:21.013Z,7.12
2018-05-03T23:48:48.642Z,4.82
2018-05-03T23:51:16.290Z,4.55
2018-05-03T23:53:43.924Z,6.62
2018-05-03T23:56:12.507Z,6.15
2018-05-03T23:58:40.135Z,2.65
